Augusta/Daniel Field, Georgia
Current Conditions -  °F | °C
As of 7:53 PM on Sunday 23 Nov 2014 (Local Time) from KDNL Reporting Station
Light Rain Light Rain  
Wind Chill: 67°   Ceiling: 10000
Heat Index: 67°   Visibility: 8mi
Dew Point: 63°   Wind: 13mph
Humidity: 87%   Direction: 200°SSW
Pressure: 29.81"   Gusts: 18mph
Location:  33.47°N, 82.03°W
Report Text: KDNL 240053Z AUTO 20011G16KT 8SM -RA FEW055 SCT080 OVC100 19/17 A2981 RMK AO2 PK WND 21038/2359 WSHFT 2345 RAEMMB09 SLP090 P0012 T01940172 $
Loading
Personal Weather Stations






























Interactive Weather Map New forecast layout! Learn more

10-Day Weather Forecast

Advertisements
Track Severe Weather on mobile